Flight Track Log - Related Links

Times and Time Zones

All times are in EDT time to prevent confusion due to time zone crossing. See the BECT169 flight status page for this flight to view local times or setup timezone preferences in your user account.

Time Position Orientation Groundspeed Altitude Reporting Facility
EDT Latitude Longitude Course Direction KTS MPH feet Rate Location/Type
Mon 12:37:46 PM 38.0283 -96.7269 179° South 232 267 16,000  Level Kansas City Center
Mon 12:38:10 PM 38.0011 -96.7261 179° South 242 278 16,000  Level Kansas City Center
Mon 12:38:49 PM 37.9700 -96.7253 179° South 238 274 16,000  Level Kansas City Center
Mon 12:39:11 PM 37.9358 -96.7264 181° South 240 276 16,000  Level Kansas City Center
Mon 12:39:51 PM 37.9108 -96.6819 125° Southeast 249 287 16,000  Level Kansas City Center
Mon 12:40:12 PM 37.9139 -96.6556 82° East 251 289 16,000 774 Level Kansas City Center
Mon 12:40:53 PM 37.9408 -96.6106 53° Northeast 232 267 16,800 1,377 Climbing Kansas City Center
Mon 12:41:13 PM 37.9533 -96.5906 52° Northeast 201 231 17,400 1,161 Climbing Kansas City Center
Mon 12:41:55 PM 37.9778 -96.5642 40° Northeast 194 223 18,000 1,100 Climbing Kansas City Center
Mon 12:42:13 PM 37.9936 -96.5547 25° Northeast 173 199 18,500 1,355 Climbing Kansas City Center
Mon 12:42:57 PM 38.0219 -96.5339 30° Northeast 180 207 19,400 1,180 Climbing Kansas City Center
Mon 12:43:14 PM 38.0364 -96.5208 35° Northeast 175 201 19,700 581 Climbing Kansas City Center
Mon 12:43:59 PM 38.0639 -96.4981 33° Northeast 182 209 20,000 168 Climbing Kansas City Center
Mon 12:45:01 PM 38.1222 -96.4706 20° North 224 258 20,000  Level Kansas City Center
Mon 12:46:03 PM 38.1992 -96.4911 348° North 236 272 20,000  Level Kansas City Center
Mon 12:47:05 PM 38.2639 -96.5089 348° North 238 274 20,000  Level Kansas City Center
Mon 12:48:07 PM 38.3294 -96.5272 348° North 240 276 20,000  Level Kansas City Center
Mon 12:49:09 PM 38.3933 -96.5431 349° North 235 270 20,000  Level Kansas City Center
Mon 12:50:11 PM 38.4656 -96.5631 348° North 234 269 20,000  Level Kansas City Center
Mon 12:51:14 PM 38.5242 -96.5783 348° North 227 261 20,000  Level Kansas City Center
Mon 12:52:16 PM 38.5928 -96.5975 348° North 226 260 20,000  Level Kansas City Center
Mon 12:53:18 PM 38.6517 -96.6153 347° North 226 260 20,000  Level Kansas City Center
Mon 12:54:20 PM 38.7064 -96.6303 348° North 212 244 20,000  Level Kansas City Center
Mon 12:55:22 PM 38.7631 -96.6472 347° North 201 231 20,000  Level Kansas City Center
Mon 12:56:24 PM 38.8169 -96.6631 347° North 199 229 20,000  Level Kansas City Center
Mon 12:57:26 PM 38.8711 -96.6811 345° North 201 231 20,000  Level Kansas City Center
Mon 12:58:28 PM 38.9372 -96.7031 346° North 203 234 20,000  Level Kansas City Center
Mon 12:59:32 PM 38.9917 -96.7222 345° North 201 231 20,000  Level Kansas City Center
Mon 01:00:34 PM 39.0456 -96.7397 346° North 205 236 20,000  Level Kansas City Center
Mon 01:01:36 PM 39.1053 -96.7600 345° North 201 231 20,000  Level Kansas City Center
Mon 01:02:38 PM 39.1150 -96.8264 281° West 210 242 20,000  Level Kansas City Center
Mon 01:03:40 PM 39.0561 -96.8772 214° Southwest 224 258 20,000  Level Kansas City Center
Mon 01:04:43 PM 39.0000 -96.9144 207° Southwest 233 268 20,000  Level Kansas City Center
Mon 01:05:45 PM 38.9422 -96.9561 209° Southwest 226 260 20,000  Level Kansas City Center
Mon 01:06:47 PM 38.8867 -96.9947 208° Southwest 227 261 20,000  Level Kansas City Center
Mon 01:07:49 PM 38.8244 -97.0075 189° South 230 265 20,000  Level Kansas City Center
Mon 01:08:51 PM 38.7564 -97.0103 182° South 242 278 20,000  Level Kansas City Center
Mon 01:09:53 PM 38.6625 -97.0156 183° South 281 323 20,000  Level Kansas City Center
Mon 01:10:55 PM 38.5814 -97.0178 181° South 290 334 20,000  Level Kansas City Center
Mon 01:11:57 PM 38.5089 -96.9783 157° South 279 321 20,000  Level Kansas City Center
Mon 01:12:59 PM 38.4447 -96.9358 153° Southeast 262 302 20,000  Level Kansas City Center
Mon 01:14:01 PM 38.3753 -96.8908 153° Southeast 275 316 20,000 -484 Level Kansas City Center
Mon 01:15:03 PM 38.3006 -96.8444 154° Southeast 295 339 19,000 -726 Descending Kansas City Center
Mon 01:16:05 PM 38.2219 -96.7933 153° Southeast 312 359 18,500 -672 Descending Kansas City Center
Mon 01:17:08 PM 38.1367 -96.7383 153° Southeast 287 330 17,600 -823 Descending Kansas City Center
Mon 01:18:09 PM 38.0675 -96.6944 153° Southeast 277 319 16,800 -866 Descending Kansas City Center
Mon 01:18:45 PM 38.0219 -96.6642 152° Southeast 276 318 16,200 -1,548 Descending Kansas City Center
Mon 01:19:11 PM 37.9967 -96.6483 154° Southeast 283 326 15,200 -1,770 Descending Kansas City Center
Mon 01:19:46 PM 37.9497 -96.6178 153° Southeast 289 333 14,400 -1,161 Descending Kansas City Center
Mon 01:20:13 PM 37.9242 -96.6072 162° South 282 325 14,000 -885 Descending Kansas City Center
Mon 01:20:47 PM 37.8936 -96.6431 223° Southwest 245 282 13,500 -484 Descending Kansas City Center
Mon 01:21:15 PM 37.8808 -96.6719 241° Southwest 252 290 13,500 -200 Level Kansas City Center
Mon 01:21:47 PM 37.8592 -96.7178 239° Southwest 244 281 13,300 -871 Descending Kansas City Center
Mon 01:22:17 PM 37.8464 -96.7483 242° Southwest 250 288 12,600 -1,714 Descending Kansas City Center
Mon 01:22:36 PM 37.8267 -96.7894 239° Southwest 270 311 11,900 -1,452 Descending Kansas City Center
Mon 01:23:19 PM 37.8069 -96.8317 239° Southwest 271 312 11,100 -1,400 Descending Kansas City Center
Mon 01:23:36 PM 37.7886 -96.8697 239° Southwest 275 316 10,500 -968 Descending Kansas City Center
Mon 01:24:21 PM 37.7511 -96.9061 218° Southwest 259 298 10,100 -729 Descending Kansas City Center
Mon 01:25:23 PM 37.6828 -96.9189 188° South 247 284 9,200 -919 Descending Kansas City Center
Mon 01:26:25 PM 37.6206 -96.9044 170° South 248 285 8,200 -581 Descending Kansas City Center
Mon 01:27:27 PM 37.6347 -96.8444 73° East 181 208 8,000 -97 Descending Kansas City Center
Mon 01:28:29 PM 37.6764 -96.8500 354° North 165 190 8,000 -50 Level Kansas City Center
Mon 01:29:28 PM 37.7247 -96.8406 North 159 183 7,900 48 Descending Kansas City Center
Mon 01:30:33 PM 37.7725 -96.8308 North 157 181 8,100 520 Climbing Kansas City Center
Mon 01:31:35 PM 37.8142 -96.8250 North 152 175 9,000 821 Climbing Kansas City Center
Mon 01:32:30 PM 37.8528 -96.8194 North 146 168 9,700 678 Climbing Kansas City Center
Mon 01:33:30 PM 37.9008 -96.8144 North 171 197 10,300 567 Climbing Kansas City Center
Mon 01:34:37 PM 37.9503 -96.8064 North 172 198 10,900 563 Climbing Kansas City Center
Mon 01:35:38 PM 37.9978 -96.7986 North 173 199 11,500 605 Climbing Kansas City Center
Mon 01:36:46 PM 38.0544 -96.7903 North 174 200 12,200 645 Climbing Kansas City Center
Mon 01:37:39 PM 38.0994 -96.7844 North 177 204 12,800 617 Climbing Kansas City Center
Mon 01:38:33 PM 38.1408 -96.7778 North 178 205 13,300 254 Climbing Kansas City Center
Mon 01:38:50 PM 38.1514 -96.7850 332° Northwest 180 207 13,100 -1,075 Descending Kansas City Center
Mon 01:39:40 PM 38.1275 -96.8306 236° Southwest 231 266 12,100 -1,436 Descending Kansas City Center
Mon 01:40:47 PM 38.0547 -96.8183 172° South 255 293 10,300 -1,489 Descending Kansas City Center
Mon 01:41:53 PM 37.9783 -96.8122 176° South 234 269 8,800 -1,087 Descending Kansas City Center
Mon 01:42:54 PM 37.9197 -96.8139 181° South 209 241 8,000 -414 Descending Kansas City Center
Mon 01:43:49 PM 37.8739 -96.8003 167° South 176 203 8,000  Level Kansas City Center
Mon 01:44:49 PM 37.8281 -96.7839 164° South 165 190 8,000  Level Kansas City Center
Mon 01:45:50 PM 37.7831 -96.7753 171° South 163 188 8,000 -99 Level Kansas City Center
Mon 01:46:50 PM 37.7336 -96.7647 170° South 179 206 7,800 -79 Descending Kansas City Center
Mon 01:47:06 PM 37.7281 -96.7644 178° South 177 204 7,900 90 Climbing Kansas City Center
Mon 01:47:57 PM 37.6839 -96.7517 167° South 173 199 7,900 60 Level Kansas City Center
Mon 01:48:46 PM 37.6472 -96.7419 168° South 157 181 8,000 -55 Climbing Kansas City Center
Mon 01:49:46 PM 37.6081 -96.7297 166° South 147 169 7,800 -140 Descending Kansas City Center
Mon 01:50:12 PM 37.5919 -96.7261 170° South 150 173 7,800 90 Level Kansas City Center
Mon 01:50:53 PM 37.5836 -96.7575 251° West 146 168 7,900 97 Climbing Kansas City Center
Mon 01:51:14 PM 37.5917 -96.7639 328° Northwest 146 168 7,900  Level Kansas City Center
Mon 01:51:54 PM 37.6181 -96.7653 358° North 126 145 7,900  Level Kansas City Center
Mon 01:52:16 PM 37.6292 -96.7664 355° North 132 152 7,900 -111 Level Kansas City Center
Mon 01:52:48 PM 37.6497 -96.7681 356° North 118 136 7,800 -290 Descending Kansas City Center
Mon 01:53:18 PM 37.6606 -96.7675 North 120 138 7,600 -197 Descending Kansas City Center
Mon 01:53:49 PM 37.6794 -96.7683 358° North 108 124 7,600  Level Kansas City Center
Mon 01:54:20 PM 37.6908 -96.7672 North 109 125 7,600 295 Level Kansas City Center
Mon 01:54:50 PM 37.7089 -96.7689 356° North 106 122 7,900 290 Climbing Kansas City Center
Mon 01:55:22 PM 37.7206 -96.7692 359° North 107 123 7,900  Level Kansas City Center
Mon 01:55:50 PM 37.7431 -96.7739 351° North 131 151 7,900 97 Level Kansas City Center
Mon 01:56:24 PM 37.7675 -96.7689 North 144 166 8,000 98 Climbing Kansas City Center
Mon 01:56:51 PM 37.7778 -96.7444 62° Northeast 191 220 8,000  Level Kansas City Center
Mon 01:57:26 PM 37.7708 -96.7081 104° East 194 223 8,000 100 Level Kansas City Center
Mon 01:57:51 PM 37.7456 -96.6967 160° South 214 246 8,100  Climbing Kansas City Center
Mon 01:58:28 PM 37.7161 -96.7053 193° South 204 235 8,000 -197 Descending Kansas City Center
Mon 01:58:52 PM 37.7136 -96.7336 264° West 194 223 7,900  Descending Kansas City Center
Mon 01:59:30 PM 37.7150 -96.7681 273° West 181 208 8,000 98 Climbing Kansas City Center
Mon 01:59:53 PM 37.7036 -96.7989 245° Southwest 175 201 8,000  Level Kansas City Center
Mon 02:00:32 PM 37.6969 -96.8261 253° West 177 204 8,000  Level Kansas City Center
Mon 02:00:53 PM 37.6883 -96.8569 251° West 178 205 8,000  Level Kansas City Center
Mon 02:01:34 PM 37.6722 -96.8786 227° Southwest 186 214 8,000  Level Kansas City Center
Mon 02:01:54 PM 37.6467 -96.8794 181° South 192 221 8,000 -97 Level Kansas City Center
Mon 02:02:36 PM 37.6531 -96.8478 76° East 183 211 7,900  Descending Kansas City Center
Mon 02:02:54 PM 37.6650 -96.8528 342° North 160 184 8,000 97 Climbing Kansas City Center
Mon 02:03:38 PM 37.6939 -96.8481 North 171 197 8,000 90 Level Kansas City Center
Mon 02:04:01 PM 37.7075 -96.8381 30° Northeast 162 186 8,100  Climbing Kansas City Center
Mon 02:04:40 PM 37.7339 -96.8347 North 158 182 8,000 -98 Descending Kansas City Center
Mon 02:05:02 PM 37.7486 -96.8497 321° Northwest 165 190 8,000 -97 Level Kansas City Center
Mon 02:05:42 PM 37.7611 -96.8781 299° West 161 185 7,900 -58 Descending Kansas City Center
Mon 02:06:45 PM 37.7225 -96.8961 200° South 185 213 7,900 48 Level Kansas City Center
Mon 02:07:47 PM 37.6964 -96.8394 120° Southeast 184 212 8,000 76 Climbing Kansas City Center
Mon 02:08:04 PM 37.6900 -96.8117 106° East 186 214 8,000  Level Kansas City Center
Mon 02:08:49 PM 37.6836 -96.7636 100° East 186 214 8,000  Level Kansas City Center
Mon 02:09:04 PM 37.6775 -96.7503 120° Southeast 184 212 8,000  Level Kansas City Center
Mon 02:09:51 PM 37.6458 -96.7539 185° South 192 221 8,000 -52 Level Kansas City Center
Mon 02:10:59 PM 37.6742 -96.7983 309° West 152 175 7,900 -48 Descending Kansas City Center
Mon 02:11:55 PM 37.6944 -96.8375 303° West 156 180 7,900 164 Level Kansas City Center
Mon 02:12:12 PM 37.7033 -96.8572 300° West 160 184 8,100 97 Climbing Kansas City Center
Mon 02:12:57 PM 37.7272 -96.8675 341° North 166 191 8,000  Descending Kansas City Center
Mon 02:13:13 PM 37.7442 -96.8664 North 166 191 8,100  Climbing Kansas City Center
Mon 02:13:59 PM 37.7728 -96.8608 North 172 198 8,000 -56 Descending Kansas City Center
Mon 02:15:01 PM 37.7558 -96.8078 112° Southeast 189 217 8,000 44 Level Kansas City Center
Mon 02:16:14 PM 37.6917 -96.8483 207° Southwest 187 215 8,100 -48 Climbing Kansas City Center
Mon 02:17:05 PM 37.6528 -96.8478 179° South 194 223 7,900 -49 Descending Kansas City Center
Mon 02:18:16 PM 37.6178 -96.8022 134° Southeast 181 208 8,000 46 Climbing Kansas City Center
Mon 02:19:16 PM 37.6586 -96.8114 350° North 153 176 8,000  Level Kansas City Center
Mon 02:20:11 PM 37.6850 -96.8353 324° Northwest 158 182 8,000  Level Kansas City Center
Mon 02:21:13 PM 37.7236 -96.8636 330° Northwest 161 185 8,000  Level Kansas City Center
Mon 02:22:24 PM 37.7256 -96.9331 272° West 170 196 8,000  Level Kansas City Center
Mon 02:23:17 PM 37.6861 -96.9394 187° South 181 208 8,000  Level Kansas City Center
Mon 02:24:19 PM 37.6803 -96.8772 97° East 179 206 8,000  Level Kansas City Center
Mon 02:25:20 PM 37.7194 -96.8308 43° Northeast 170 196 8,000  Level Kansas City Center
Mon 02:26:15 PM 37.7525 -96.8042 33° Northeast 170 196 8,000  Level Kansas City Center
Mon 02:27:15 PM 37.7983 -96.7808 22° Northeast 166 191 8,000  Level Kansas City Center
Mon 02:28:16 PM 37.7814 -96.8206 242° Southwest 181 208 8,000  Level Kansas City Center
Mon 02:29:17 PM 37.7300 -96.8317 190° South 192 221 8,000  Level Kansas City Center
Mon 02:30:17 PM 37.6789 -96.8453 192° South 188 216 8,000  Level Kansas City Center
Mon 02:31:18 PM 37.6367 -96.8044 143° Southeast 194 223 8,000  Level Kansas City Center
Mon 02:31:33 PM 37.6325 -96.7931 115° Southeast 192 221 8,000  Level Kansas City Center
Mon 02:32:12 PM 37.6450 -96.7608 64° Northeast 177 204 8,000  Level Kansas City Center
Mon 02:32:35 PM 37.6569 -96.7578 11° North 191 220 8,000  Level Kansas City Center
Mon 02:33:19 PM 37.6811 -96.7867 317° Northwest 156 180 8,000  Level Kansas City Center
Mon 02:33:37 PM 37.6839 -96.7969 289° West 166 191 8,000  Level Kansas City Center
Mon 02:34:19 PM 37.6914 -96.8433 282° West 164 189 8,000  Level Kansas City Center
Mon 02:34:39 PM 37.6969 -96.8636 289° West 165 190 8,000  Level Kansas City Center
Mon 02:35:20 PM 37.7036 -96.9022 282° West 164 189 8,000  Level Kansas City Center
Mon 02:35:41 PM 37.7042 -96.9206 272° West 164 189 8,000 -361 Level Kansas City Center
Mon 02:36:43 PM 37.7033 -96.9958 269° West 212 244 7,500 -300 Descending Kansas City Center
Mon 02:37:21 PM 37.7036 -97.0478 270° West 221 254 7,500  Level Kansas City Center
Mon 02:37:45 PM 37.7064 -97.0708 279° West 214 246 7,500  Level Kansas City Center
Mon 02:38:22 PM 37.7089 -97.1208 274° West 210 242 7,500  Level Kansas City Center
Mon 02:38:47 PM 37.7128 -97.1431 282° West 208 239 7,500  Level Kansas City Center
Mon 02:39:49 PM 37.7128 -97.2172 270° West 211 243 7,500 -200 Level Kansas City Center
Mon 02:40:17 PM 37.7106 -97.2636 267° West 213 245 7,200 -774 Descending Kansas City Center
Mon 02:40:51 PM 37.7122 -97.2928 274° West 215 247 6,700 -689 Descending Kansas City Center
Mon 02:41:18 PM 37.7139 -97.3397 273° West 224 258 6,500 -194 Descending Kansas City Center
Mon 02:41:53 PM 37.7167 -97.3825 275° West 212 244 6,500 -90 Level Kansas City Center
Mon 02:42:25 PM 37.7217 -97.4206 279° West 199 229 6,400 -677 Descending Kansas City Center
Mon 02:42:55 PM 37.7272 -97.4522 283° West 204 235 5,800 -1,111 Descending Kansas City Center
Mon 02:43:19 PM 37.7303 -97.4881 276° West 220 253 5,400 -774 Descending Kansas City Center
Mon 02:43:57 PM 37.7356 -97.5300 279° West 213 245 5,000 -393 Descending Kansas City Center
Mon 02:44:20 PM 37.7397 -97.5633 279° West 216 249 5,000  Level Kansas City Center
Mon 02:44:59 PM 37.7467 -97.6028 283° West 215 247 5,000  Level Kansas City Center
Mon 02:45:21 PM 37.7547 -97.6325 289° West 203 234 5,000 -484 Level Kansas City Center
Mon 02:46:01 PM 37.7769 -97.6625 313° West 219 252 4,500 -885 Descending Kansas City Center
Mon 02:46:22 PM 37.8011 -97.6544 15° North 233 268 4,100 -968 Descending Kansas City Center
Mon 02:47:03 PM 37.8333 -97.6256 35° Northeast 231 266 3,500 -600 Descending Kansas City Center
Mon 02:47:22 PM 37.8550 -97.6039 38° Northeast 240 276 3,500  Level Kansas City Center
Mon 02:48:05 PM 37.8694 -97.5533 70° East 223 257 3,500  Level Kansas City Center
Mon 02:48:23 PM 37.8714 -97.5325 83° East 195 224 3,500  Level Kansas City Center
Mon 02:49:07 PM 37.8753 -97.4883 84° East 200 230 3,500  Level Kansas City Center
Mon 02:49:24 PM 37.8692 -97.4667 110° East 184 212 3,500  Level Kansas City Center
Mon 02:50:09 PM 37.8625 -97.4225 101° East 193 222 3,500  Level Kansas City Center
Mon 02:50:25 PM 37.8586 -97.4019 103° East 192 221 3,500 -290 Level Kansas City Center
Mon 02:51:11 PM 37.8319 -97.3728 139° Southeast 201 231 3,200 -492 Descending Kansas City Center
Mon 02:51:26 PM 37.8156 -97.3689 169° South 194 223 3,000 -160 Descending Kansas City Center
Mon 02:52:26 PM 37.7728 -97.3836 195° South 154 177 3,000 -98 Level Kansas City Center
Mon 02:53:28 PM 37.7344 -97.4000 199° South 142 163 2,800 -378 Descending Kansas City Center
Mon 02:54:17 PM 37.7081 -97.4133 202° Southwest 152 175 2,300 -703 Descending Kansas City Center
Mon 02:55:19 PM 37.6661 -97.4319 199° South 142 163 1,500 -333 Descending Kansas City Center
Mon 02:55:47 PM 37.6522 -97.4392 202° Southwest 117 135 1,800 968 Climbing Kansas City Center
Mon 02:56:21 PM 37.6331 -97.4308 161° South 140 161 2,500 404 Climbing Kansas City Center
Mon 02:57:31 PM 37.6425 -97.3825 76° East 186 214 2,500 -145 Level Kansas City Center
Mon 02:58:25 PM 37.6764 -97.3517 36° Northeast 176 203 2,200 -155 Descending Kansas City Center
Mon 02:59:27 PM 37.7106 -97.3111 43° Northeast 176 203 2,200  Level Kansas City Center
Mon 03:00:29 PM 37.7106 -97.2572 90° East 160 184 2,200  Level Kansas City Center
Mon 03:01:31 PM 37.6961 -97.1964 107° East 153 176 2,200  Level Kansas City Center
Mon 03:02:32 PM 37.7219 -97.1672 42° Northeast 154 177 2,200 -146 Level Kansas City Center
Mon 03:03:34 PM 37.7400 -97.2072 300° West 145 167 1,900 -339 Descending Kansas City Center
Mon 03:04:36 PM 37.7097 -97.2119 187° South 118 136 1,500 -387 Descending Kansas City Center

Login

Don't have an account? Register now (free) for customized features, flight alerts, and more!